Time;durP1;ratioP1;P1;durP2;ratioP2;P2;SDS_P1;SDS_P2;PMS_P1;PMS_P2;Temp;Humidity;BMP_temperature;BMP_pressure;BME280_temperature;BME280_humidity;BME280_pressure;Samples;Min_cycle;Max_cycle;Signal;HPM_P1;HPM_P2
2023/05/14 00:01:16;;;;;;;5.43;4.93;;;;;;;;;;5002884;28;20214;-79
2023/05/14 00:03:43;;;;;;;3.75;3.17;;;;;;;;;;5003355;28;20263;-79
2023/05/14 00:06:12;;;;;;;3.10;2.80;;;;;;;;;;5002237;28;20216;-79
2023/05/14 00:08:39;;;;;;;3.17;2.90;;;;;;;;;;5002603;28;20294;-79
2023/05/14 00:11:07;;;;;;;3.65;2.92;;;;;;;;;;5003476;28;20302;-79
2023/05/14 00:13:35;;;;;;;2.60;2.40;;;;;;;;;;5008358;28;20239;-79
2023/05/14 00:16:02;;;;;;;2.30;2.10;;;;;;;;;;5008291;28;20278;-79
2023/05/14 00:18:30;;;;;;;2.90;2.67;;;;;;;;;;5008351;28;20298;-79
2023/05/14 00:20:58;;;;;;;2.50;2.30;;;;;;;;;;5009165;28;20231;-79
2023/05/14 00:23:26;;;;;;;2.25;2.15;;;;;;;;;;5008619;28;20210;-78
2023/05/14 00:25:54;;;;;;;2.63;2.50;;;;;;;;;;5008728;28;20314;-79
2023/05/14 00:28:21;;;;;;;2.55;2.35;;;;;;;;;;5008490;28;20231;-79
2023/05/14 00:30:49;;;;;;;2.78;2.58;;;;;;;;;;5007899;28;20205;-78
2023/05/14 00:33:17;;;;;;;2.63;2.10;;;;;;;;;;5006822;28;20199;-79
2023/05/14 00:35:44;;;;;;;3.25;2.95;;;;;;;;;;5005883;28;20239;-78
2023/05/14 00:38:15;;;;;;;3.85;3.38;;;;;;;;;;5006362;28;20203;-79
2023/05/14 00:40:49;;;;;;;2.83;2.58;;;;;;;;;;5006401;28;20262;-79
2023/05/14 00:43:17;;;;;;;2.63;2.42;;;;;;;;;;5005625;28;20203;-79
2023/05/14 00:45:45;;;;;;;2.22;2.13;;;;;;;;;;5005880;28;20227;-79
2023/05/14 00:48:13;;;;;;;4.95;2.28;;;;;;;;;;5005041;28;20687;-79
2023/05/14 00:50:40;;;;;;;2.78;2.58;;;;;;;;;;5006145;28;20729;-79
2023/05/14 00:53:09;;;;;;;2.42;2.22;;;;;;;;;;5005692;28;20300;-79
2023/05/14 00:55:38;;;;;;;3.03;2.83;;;;;;;;;;5005507;28;20686;-79
2023/05/14 00:58:09;;;;;;;2.50;2.30;;;;;;;;;;5004811;28;20212;-79
2023/05/14 01:00:37;;;;;;;2.38;2.28;;;;;;;;;;5004830;28;20294;-78
2023/05/14 01:03:06;;;;;;;2.38;2.28;;;;;;;;;;5005057;28;20203;-79
2023/05/14 01:05:44;;;;;;;2.30;2.15;;;;;;;;;;5005087;28;20234;-79
2023/05/14 01:08:18;;;;;;;2.20;2.10;;;;;;;;;;5004453;28;20203;-79
2023/05/14 01:10:51;;;;;;;2.92;2.72;;;;;;;;;;5003866;28;20222;-79
2023/05/14 01:13:27;;;;;;;2.50;2.30;;;;;;;;;;5006683;28;20210;-78
2023/05/14 01:15:57;;;;;;;2.13;2.03;;;;;;;;;;5014117;28;20229;-79
2023/05/14 01:18:25;;;;;;;2.90;2.70;;;;;;;;;;5021278;28;20276;-78
2023/05/14 01:20:52;;;;;;;4.40;4.00;;;;;;;;;;5023327;28;20766;-78
2023/05/14 01:23:21;;;;;;;4.05;3.17;;;;;;;;;;5023332;28;20293;-79
2023/05/14 01:25:49;;;;;;;4.07;3.78;;;;;;;;;;5022762;28;20286;-78
2023/05/14 01:28:18;;;;;;;3.42;3.22;;;;;;;;;;5023269;28;20671;-79
2023/05/14 01:30:52;;;;;;;2.72;2.53;;;;;;;;;;5023269;28;20218;-78
2023/05/14 01:33:20;;;;;;;2.33;2.22;;;;;;;;;;5023207;28;20293;-79
2023/05/14 01:35:48;;;;;;;2.63;2.42;;;;;;;;;;5023072;28;20317;-79
2023/05/14 01:38:20;;;;;;;2.67;2.47;;;;;;;;;;5022693;28;20203;-78
2023/05/14 01:40:48;;;;;;;3.08;2.40;;;;;;;;;;5022767;28;20692;-79
2023/05/14 01:43:16;;;;;;;3.20;2.90;;;;;;;;;;5008557;28;20275;-78
2023/05/14 01:45:44;;;;;;;3.53;3.22;;;;;;;;;;5002336;28;20295;-79
2023/05/14 01:48:12;;;;;;;3.78;3.20;;;;;;;;;;5002032;28;20301;-79
2023/05/14 01:50:39;;;;;;;3.50;3.30;;;;;;;;;;5002225;28;20578;-78
2023/05/14 01:53:07;;;;;;;2.88;2.67;;;;;;;;;;5002354;28;20223;-79
2023/05/14 01:55:35;;;;;;;3.13;2.72;;;;;;;;;;5002463;28;20864;-78
2023/05/14 01:58:03;;;;;;;2.67;2.45;;;;;;;;;;5001918;28;20779;-78
2023/05/14 02:00:31;;;;;;;2.10;2.00;;;;;;;;;;5002013;28;20270;-78
2023/05/14 02:02:58;;;;;;;2.75;2.55;;;;;;;;;;5002057;28;20214;-78
2023/05/14 02:05:26;;;;;;;2.33;2.22;;;;;;;;;;5001342;28;20227;-78
2023/05/14 02:07:53;;;;;;;3.00;2.80;;;;;;;;;;5001162;28;20290;-78
2023/05/14 02:10:21;;;;;;;1.98;1.88;;;;;;;;;;5002348;28;20234;-78
2023/05/14 02:12:50;;;;;;;3.00;1.98;;;;;;;;;;5001520;28;20214;-78
2023/05/14 02:15:17;;;;;;;2.53;2.40;;;;;;;;;;5001337;28;20287;-79
2023/05/14 02:17:45;;;;;;;2.17;2.08;;;;;;;;;;5000785;28;20237;-78
2023/05/14 02:20:13;;;;;;;2.35;2.15;;;;;;;;;;5000786;28;20214;-78
2023/05/14 02:22:44;;;;;;;2.42;2.30;;;;;;;;;;5000574;28;20203;-79
2023/05/14 02:25:11;;;;;;;2.38;2.28;;;;;;;;;;5001264;28;20234;-78
2023/05/14 02:27:39;;;;;;;2.40;2.30;;;;;;;;;;5000424;28;20294;-79
2023/05/14 02:30:11;;;;;;;2.42;2.22;;;;;;;;;;5001265;28;20255;-78
2023/05/14 02:32:38;;;;;;;2.50;2.30;;;;;;;;;;5000499;28;20211;-78
2023/05/14 02:35:07;;;;;;;2.53;2.33;;;;;;;;;;5000318;28;20314;-78
2023/05/14 02:37:35;;;;;;;2.40;2.20;;;;;;;;;;4999420;28;20258;-78
2023/05/14 02:40:03;;;;;;;8.00;3.72;;;;;;;;;;4999271;28;20286;-78
2023/05/14 02:42:30;;;;;;;3.13;2.92;;;;;;;;;;5000545;28;20270;-78
2023/05/14 02:44:58;;;;;;;2.70;2.50;;;;;;;;;;4999991;28;20318;-78
2023/05/14 02:47:26;;;;;;;2.75;2.55;;;;;;;;;;4999198;28;20651;-79
2023/05/14 02:49:54;;;;;;;2.83;2.63;;;;;;;;;;4999241;28;20294;-78
2023/05/14 02:52:21;;;;;;;2.80;2.60;;;;;;;;;;4999776;28;20203;-78
2023/05/14 02:54:48;;;;;;;2.38;2.28;;;;;;;;;;4999343;28;20234;-78
2023/05/14 02:57:16;;;;;;;3.35;2.85;;;;;;;;;;4999840;28;20665;-78
2023/05/14 02:59:44;;;;;;;2.53;2.35;;;;;;;;;;4999478;28;20211;-78
2023/05/14 03:02:11;;;;;;;2.90;2.70;;;;;;;;;;4999728;28;20230;-79
2023/05/14 03:04:40;;;;;;;2.70;2.50;;;;;;;;;;4999835;28;20203;-78
2023/05/14 03:07:07;;;;;;;2.45;2.35;;;;;;;;;;4999770;28;20207;-78
2023/05/14 03:09:35;;;;;;;2.67;2.47;;;;;;;;;;4998973;28;20287;-78
2023/05/14 03:12:02;;;;;;;2.45;2.25;;;;;;;;;;4999603;28;20298;-79
2023/05/14 03:14:29;;;;;;;2.78;2.50;;;;;;;;;;4999418;28;20294;-79
2023/05/14 03:16:57;;;;;;;3.63;2.33;;;;;;;;;;5000130;28;20687;-79
2023/05/14 03:19:24;;;;;;;3.17;2.78;;;;;;;;;;4999562;28;20208;-78
2023/05/14 03:21:53;;;;;;;2.90;2.70;;;;;;;;;;4998709;28;20767;-78
2023/05/14 03:24:20;;;;;;;2.80;2.60;;;;;;;;;;4999866;28;20271;-78
2023/05/14 03:26:48;;;;;;;2.60;2.40;;;;;;;;;;4998902;28;20219;-78
2023/05/14 03:29:16;;;;;;;2.45;2.25;;;;;;;;;;4999303;28;20294;-78
2023/05/14 03:31:44;;;;;;;2.40;2.20;;;;;;;;;;5000191;28;20266;-78
2023/05/14 03:34:11;;;;;;;2.47;2.28;;;;;;;;;;4999494;28;20659;-78
2023/05/14 03:36:39;;;;;;;2.83;2.63;;;;;;;;;;5000021;28;20291;-78
2023/05/14 03:39:08;;;;;;;2.95;2.40;;;;;;;;;;4998610;28;20687;-78
2023/05/14 03:41:36;;;;;;;2.17;2.00;;;;;;;;;;4999030;28;20678;-79
2023/05/14 03:44:05;;;;;;;3.50;3.20;;;;;;;;;;4979609;28;20232;-78
2023/05/14 03:46:32;;;;;;;3.67;3.38;;;;;;;;;;4983717;28;20310;-78
2023/05/14 03:49:00;;;;;;;4.10;3.45;;;;;;;;;;4998314;28;20282;-78
2023/05/14 03:51:27;;;;;;;2.88;2.67;;;;;;;;;;4997659;28;20211;-78
2023/05/14 03:53:56;;;;;;;2.80;2.60;;;;;;;;;;4998103;28;20603;-78
2023/05/14 03:56:26;;;;;;;3.47;3.28;;;;;;;;;;4998136;28;20227;-79
2023/05/14 03:58:53;;;;;;;2.85;2.58;;;;;;;;;;4997636;28;20200;-78
2023/05/14 04:01:21;;;;;;;2.85;2.65;;;;;;;;;;4998106;28;20227;-78
2023/05/14 04:03:48;;;;;;;2.35;2.20;;;;;;;;;;4997750;28;20262;-78
2023/05/14 04:06:15;;;;;;;2.30;2.20;;;;;;;;;;4999350;28;20703;-78
2023/05/14 04:08:43;;;;;;;2.20;2.10;;;;;;;;;;5001283;28;20258;-78
2023/05/14 04:11:10;;;;;;;2.40;2.17;;;;;;;;;;5001390;28;20255;-79
2023/05/14 04:13:39;;;;;;;2.05;1.95;;;;;;;;;;5000679;28;20231;-78
2023/05/14 04:16:07;;;;;;;2.30;2.15;;;;;;;;;;5000365;28;20230;-78
2023/05/14 04:18:34;;;;;;;1.95;1.85;;;;;;;;;;5000117;28;20415;-78
2023/05/14 04:21:02;;;;;;;2.60;2.40;;;;;;;;;;4999601;28;20211;-78
2023/05/14 04:23:30;;;;;;;2.00;1.90;;;;;;;;;;4999978;28;20290;-78
2023/05/14 04:25:58;;;;;;;3.20;2.90;;;;;;;;;;5000352;28;20228;-79
2023/05/14 04:28:25;;;;;;;3.50;2.20;;;;;;;;;;4999921;28;20206;-78
2023/05/14 04:30:54;;;;;;;2.50;2.13;;;;;;;;;;4999926;28;20604;-79
2023/05/14 04:33:21;;;;;;;2.45;2.25;;;;;;;;;;4999713;28;20270;-78
2023/05/14 04:35:49;;;;;;;1.90;1.80;;;;;;;;;;4999224;28;20230;-78
2023/05/14 04:38:16;;;;;;;1.95;1.85;;;;;;;;;;4999288;28;20318;-78
2023/05/14 04:40:44;;;;;;;2.72;2.53;;;;;;;;;;4999385;28;20299;-79
2023/05/14 04:43:11;;;;;;;1.80;1.70;;;;;;;;;;4998939;28;20215;-78
2023/05/14 04:45:39;;;;;;;2.00;1.90;;;;;;;;;;4999474;28;20235;-78
2023/05/14 04:48:08;;;;;;;2.05;1.88;;;;;;;;;;4999309;28;20230;-79
2023/05/14 04:50:36;;;;;;;2.03;1.92;;;;;;;;;;4999415;28;20204;-79
2023/05/14 04:53:03;;;;;;;2.30;2.20;;;;;;;;;;4999045;28;20255;-78
2023/05/14 04:55:31;;;;;;;2.70;2.50;;;;;;;;;;4998665;28;20233;-79
2023/05/14 04:57:58;;;;;;;2.67;2.47;;;;;;;;;;4999317;28;20227;-78
2023/05/14 05:00:26;;;;;;;2.70;2.35;;;;;;;;;;4999252;28;20203;-79
2023/05/14 05:02:53;;;;;;;1.85;1.75;;;;;;;;;;4999569;28;20210;-78
2023/05/14 05:05:22;;;;;;;2.10;2.00;;;;;;;;;;4999781;28;20318;-79
2023/05/14 05:07:50;;;;;;;2.50;2.35;;;;;;;;;;4997977;28;20200;-78
2023/05/14 05:10:17;;;;;;;2.10;1.90;;;;;;;;;;4998062;28;20627;-78
2023/05/14 05:12:45;;;;;;;2.05;1.95;;;;;;;;;;4998839;28;20635;-79
2023/05/14 05:15:12;;;;;;;2.97;2.78;;;;;;;;;;4998066;28;20227;-78
2023/05/14 05:17:40;;;;;;;2.15;1.95;;;;;;;;;;4996272;28;20318;-78
2023/05/14 05:20:09;;;;;;;2.03;1.83;;;;;;;;;;4998086;28;20204;-78
2023/05/14 05:22:38;;;;;;;1.67;1.58;;;;;;;;;;4997687;28;20215;-78
2023/05/14 05:25:07;;;;;;;2.95;2.65;;;;;;;;;;4998199;28;20314;-79
2023/05/14 05:27:34;;;;;;;2.92;2.47;;;;;;;;;;4998865;28;20226;-79
2023/05/14 05:30:02;;;;;;;2.10;2.00;;;;;;;;;;4997580;28;20262;-78
2023/05/14 05:32:30;;;;;;;2.33;1.65;;;;;;;;;;4998205;28;20295;-79
2023/05/14 05:34:57;;;;;;;2.40;2.30;;;;;;;;;;4997519;28;20220;-80
2023/05/14 05:37:25;;;;;;;3.10;2.80;;;;;;;;;;4999262;28;20637;-79
2023/05/14 05:39:54;;;;;;;2.58;2.38;;;;;;;;;;4998727;28;20790;-79
2023/05/14 05:42:22;;;;;;;2.70;2.50;;;;;;;;;;4994514;28;20207;-77
2023/05/14 05:47:16;;;;;;;2.55;2.35;;;;;;;;;;5010397;22;20246;-82
2023/05/14 05:49:43;;;;;;;2.70;2.50;;;;;;;;;;4992786;28;20208;-84
2023/05/14 05:52:11;;;;;;;2.47;2.38;;;;;;;;;;4994354;28;20657;-81
2023/05/14 05:54:38;;;;;;;2.65;2.45;;;;;;;;;;4993925;28;20207;-82
2023/05/14 05:57:07;;;;;;;2.92;2.53;;;;;;;;;;4993680;28;20227;-81
2023/05/14 05:59:35;;;;;;;3.00;2.80;;;;;;;;;;4993320;28;20223;-80
2023/05/14 06:02:02;;;;;;;3.95;3.60;;;;;;;;;;4993530;28;20212;-82
2023/05/14 06:04:30;;;;;;;3.15;2.95;;;;;;;;;;4993315;28;20200;-83
2023/05/14 06:06:57;;;;;;;3.65;3.38;;;;;;;;;;4993437;28;20234;-81
2023/05/14 06:09:25;;;;;;;3.20;3.00;;;;;;;;;;4993495;28;20208;-82
2023/05/14 06:11:52;;;;;;;3.20;2.90;;;;;;;;;;4995017;28;20291;-81
2023/05/14 06:14:21;;;;;;;3.38;3.08;;;;;;;;;;5013225;28;20206;-82
2023/05/14 06:16:49;;;;;;;3.10;2.90;;;;;;;;;;5006962;28;20298;-80
2023/05/14 06:19:17;;;;;;;3.50;3.20;;;;;;;;;;4992993;28;20223;-82
2023/05/14 06:21:44;;;;;;;2.65;2.45;;;;;;;;;;4993234;28;20208;-81
2023/05/14 06:24:12;;;;;;;2.72;2.53;;;;;;;;;;4993144;28;20683;-81
2023/05/14 06:26:39;;;;;;;3.63;3.42;;;;;;;;;;4992961;28;20228;-81
2023/05/14 06:29:07;;;;;;;2.72;2.53;;;;;;;;;;4992759;28;20294;-81
2023/05/14 06:31:36;;;;;;;2.72;2.53;;;;;;;;;;4993460;28;20207;-81
2023/05/14 06:34:03;;;;;;;2.88;2.67;;;;;;;;;;4993235;28;20208;-81
2023/05/14 06:36:31;;;;;;;2.05;1.90;;;;;;;;;;4992813;28;20223;-81
2023/05/14 06:38:58;;;;;;;3.00;2.80;;;;;;;;;;4992576;28;20223;-81
2023/05/14 06:41:26;;;;;;;3.45;3.25;;;;;;;;;;4992680;28;20239;-81
2023/05/14 06:43:54;;;;;;;3.30;3.03;;;;;;;;;;5010987;28;20206;-81
2023/05/14 06:46:21;;;;;;;3.70;2.80;;;;;;;;;;5010151;28;20230;-82
2023/05/14 06:48:50;;;;;;;2.97;2.63;;;;;;;;;;4993466;28;20206;-82
2023/05/14 06:51:17;;;;;;;3.22;2.92;;;;;;;;;;4993637;28;20286;-81
2023/05/14 06:53:45;;;;;;;2.53;2.38;;;;;;;;;;4993635;28;20214;-83
2023/05/14 06:56:13;;;;;;;3.17;2.88;;;;;;;;;;4993238;28;20223;-81
2023/05/14 06:58:41;;;;;;;3.72;3.05;;;;;;;;;;4993064;28;20233;-82
2023/05/14 07:01:08;;;;;;;3.22;2.97;;;;;;;;;;4993443;28;20286;-83
2023/05/14 07:03:35;;;;;;;2.70;2.50;;;;;;;;;;4993040;28;20301;-83
2023/05/14 07:06:05;;;;;;;3.50;3.20;;;;;;;;;;4993720;28;20224;-81
2023/05/14 07:08:33;;;;;;;3.40;3.10;;;;;;;;;;4993356;28;20214;-81
2023/05/14 07:11:00;;;;;;;2.72;2.53;;;;;;;;;;4993172;28;20210;-81
2023/05/14 07:13:27;;;;;;;2.78;2.58;;;;;;;;;;4999322;28;20199;-82
2023/05/14 07:15:55;;;;;;;4.35;3.45;;;;;;;;;;4992270;28;20285;-81
2023/05/14 07:18:23;;;;;;;4.28;3.97;;;;;;;;;;4992380;28;20250;-81
2023/05/14 07:20:51;;;;;;;3.53;3.22;;;;;;;;;;4992711;28;20597;-81
2023/05/14 07:23:20;;;;;;;3.40;3.10;;;;;;;;;;4992885;28;20207;-82
2023/05/14 07:25:47;;;;;;;3.20;3.00;;;;;;;;;;4992871;28;20259;-81
2023/05/14 07:28:14;;;;;;;2.70;2.50;;;;;;;;;;4992811;28;20739;-82
2023/05/14 07:30:42;;;;;;;2.92;2.72;;;;;;;;;;4993267;28;20204;-82
2023/05/14 07:33:09;;;;;;;2.38;2.20;;;;;;;;;;4993247;28;20263;-81
2023/05/14 07:35:37;;;;;;;3.30;3.00;;;;;;;;;;4993166;28;20658;-83
2023/05/14 07:38:05;;;;;;;2.85;2.65;;;;;;;;;;4992762;28;20203;-83
2023/05/14 07:40:33;;;;;;;2.83;2.63;;;;;;;;;;4993672;28;20306;-81
2023/05/14 07:43:01;;;;;;;3.28;3.08;;;;;;;;;;5008250;28;20482;-83
2023/05/14 07:45:28;;;;;;;5.82;3.30;;;;;;;;;;5016086;28;20810;-81
2023/05/14 07:47:56;;;;;;;2.67;2.47;;;;;;;;;;4999993;28;20216;-82
2023/05/14 07:50:23;;;;;;;2.30;2.20;;;;;;;;;;4996283;28;20203;-81
2023/05/14 07:52:51;;;;;;;2.78;2.38;;;;;;;;;;4996636;28;20203;-81
2023/05/14 07:55:19;;;;;;;3.05;2.85;;;;;;;;;;4996280;28;20235;-81
2023/05/14 07:57:48;;;;;;;2.03;1.92;;;;;;;;;;4996451;28;20204;-82
2023/05/14 08:00:16;;;;;;;2.72;2.53;;;;;;;;;;4996315;28;20314;-82
2023/05/14 08:02:44;;;;;;;2.75;2.55;;;;;;;;;;4996421;28;20281;-80
2023/05/14 08:05:12;;;;;;;2.13;2.03;;;;;;;;;;4996078;28;20315;-80
2023/05/14 08:07:40;;;;;;;1.83;1.73;;;;;;;;;;4996268;28;20299;-82
2023/05/14 08:10:09;;;;;;;2.10;1.90;;;;;;;;;;4995932;28;20262;-81
2023/05/14 08:12:36;;;;;;;2.30;2.20;;;;;;;;;;5004227;28;20207;-81
2023/05/14 08:15:08;;;;;;;3.08;2.80;;;;;;;;;;5015992;28;20230;-82
2023/05/14 08:17:35;;;;;;;2.53;2.33;;;;;;;;;;5003034;28;20208;-82
2023/05/14 08:20:04;;;;;;;2.20;2.00;;;;;;;;;;4997107;28;20314;-82
2023/05/14 08:22:32;;;;;;;2.30;2.20;;;;;;;;;;4996195;28;20323;-81
2023/05/14 08:25:02;;;;;;;2.50;2.30;;;;;;;;;;4996043;28;20295;-82
2023/05/14 08:27:30;;;;;;;2.63;2.42;;;;;;;;;;4995640;28;20204;-80
2023/05/14 08:29:57;;;;;;;2.47;2.28;;;;;;;;;;4995323;28;20227;-81
2023/05/14 08:32:26;;;;;;;4.68;4.28;;;;;;;;;;4995735;28;20208;-81
2023/05/14 08:34:53;;;;;;;5.85;4.82;;;;;;;;;;4994946;28;20206;-82
2023/05/14 08:37:21;;;;;;;4.03;3.20;;;;;;;;;;4995417;28;20208;-80
2023/05/14 08:39:48;;;;;;;3.08;2.85;;;;;;;;;;4995370;28;20255;-83
2023/05/14 08:42:16;;;;;;;3.13;2.92;;;;;;;;;;5000362;28;20207;-81
2023/05/14 08:44:49;;;;;;;3.88;3.05;;;;;;;;;;5015967;28;20213;-82
2023/05/14 08:47:18;;;;;;;2.72;2.53;;;;;;;;;;5005026;28;20226;-82
2023/05/14 08:49:50;;;;;;;2.63;2.42;;;;;;;;;;4995089;28;20200;-82
2023/05/14 08:52:19;;;;;;;3.40;3.10;;;;;;;;;;4995426;28;20592;-81
2023/05/14 08:54:46;;;;;;;3.15;2.95;;;;;;;;;;4994991;28;20672;-82
2023/05/14 08:57:14;;;;;;;2.60;2.40;;;;;;;;;;4995968;28;20223;-81
2023/05/14 08:59:41;;;;;;;2.13;2.03;;;;;;;;;;4994617;28;20223;-83
2023/05/14 09:02:10;;;;;;;2.28;2.17;;;;;;;;;;4994845;28;20719;-82
2023/05/14 09:04:38;;;;;;;2.35;2.25;;;;;;;;;;4994800;28;20214;-83
2023/05/14 09:07:07;;;;;;;3.10;2.78;;;;;;;;;;4994988;28;20224;-81
2023/05/14 09:09:34;;;;;;;2.47;2.28;;;;;;;;;;4994377;28;20200;-81
2023/05/14 09:12:02;;;;;;;2.13;2.00;;;;;;;;;;4997768;28;20207;-81
2023/05/14 09:14:29;;;;;;;2.63;2.45;;;;;;;;;;5014284;28;20286;-82
2023/05/14 09:16:58;;;;;;;2.25;2.05;;;;;;;;;;5006355;28;20318;-81
2023/05/14 09:19:25;;;;;;;1.75;1.65;;;;;;;;;;4994781;28;20231;-82
2023/05/14 09:21:55;;;;;;;2.00;1.90;;;;;;;;;;4994675;28;20726;-81
2023/05/14 09:24:27;;;;;;;2.30;2.13;;;;;;;;;;4994971;28;20275;-82
2023/05/14 09:26:57;;;;;;;2.42;2.22;;;;;;;;;;4994747;28;20231;-82
2023/05/14 09:29:25;;;;;;;2.70;2.50;;;;;;;;;;4994032;28;20208;-82
2023/05/14 09:31:53;;;;;;;2.45;2.25;;;;;;;;;;4994707;28;20200;-83
2023/05/14 09:34:28;;;;;;;2.03;1.92;;;;;;;;;;4994242;28;20214;-81
2023/05/14 09:36:57;;;;;;;2.30;2.10;;;;;;;;;;4994685;28;20733;-81
2023/05/14 09:39:27;;;;;;;2.17;2.08;;;;;;;;;;4995067;28;20597;-83
2023/05/14 09:41:54;;;;;;;3.10;2.90;;;;;;;;;;4996584;28;20771;-81
2023/05/14 09:44:22;;;;;;;2.42;2.22;;;;;;;;;;5013825;28;20199;-81
2023/05/14 09:46:51;;;;;;;2.10;2.00;;;;;;;;;;5006961;28;20636;-82
2023/05/14 09:49:18;;;;;;;1.80;1.70;;;;;;;;;;4994071;28;20652;-81
2023/05/14 09:51:46;;;;;;;2.20;2.10;;;;;;;;;;4993788;28;20200;-82
2023/05/14 09:54:13;;;;;;;2.33;2.17;;;;;;;;;;4994385;28;20204;-82
2023/05/14 09:56:45;;;;;;;2.80;2.60;;;;;;;;;;4993960;28;20704;-81
2023/05/14 09:59:12;;;;;;;3.38;3.08;;;;;;;;;;4993680;28;20294;-82
2023/05/14 10:01:43;;;;;;;2.90;2.70;;;;;;;;;;4994079;28;20227;-81
2023/05/14 10:04:12;;;;;;;2.53;2.38;;;;;;;;;;4994922;28;20203;-82
2023/05/14 10:06:40;;;;;;;2.67;2.47;;;;;;;;;;4994668;28;20262;-81
2023/05/14 10:09:12;;;;;;;3.60;3.30;;;;;;;;;;4994579;28;20206;-84
2023/05/14 10:11:45;;;;;;;3.63;3.38;;;;;;;;;;4994085;28;20590;-81
2023/05/14 10:14:17;;;;;;;2.40;2.30;;;;;;;;;;5014020;28;20294;-81
2023/05/14 10:16:49;;;;;;;3.10;2.80;;;;;;;;;;5008309;28;20235;-81
2023/05/14 10:19:20;;;;;;;1.98;1.88;;;;;;;;;;4993388;28;20679;-81
2023/05/14 10:21:52;;;;;;;2.20;2.10;;;;;;;;;;4994856;28;20224;-81
2023/05/14 10:24:20;;;;;;;2.30;2.20;;;;;;;;;;4994669;28;20207;-82
2023/05/14 10:26:49;;;;;;;2.00;1.90;;;;;;;;;;4994073;28;20310;-82
2023/05/14 10:29:17;;;;;;;2.83;2.60;;;;;;;;;;4993601;28;20210;-82
2023/05/14 10:31:50;;;;;;;2.55;2.40;;;;;;;;;;4994053;28;20234;-81
2023/05/14 10:34:33;;;;;;;3.50;2.20;;;;;;;;;;4994821;28;20262;-84
2023/05/14 10:37:02;;;;;;;2.95;2.75;;;;;;;;;;4992552;28;20263;-84
2023/05/14 10:39:47;;;;;;;2.42;2.30;;;;;;;;;;4993806;28;20210;-82
2023/05/14 10:42:19;;;;;;;2.60;2.40;;;;;;;;;;4998946;28;20620;-82
2023/05/14 10:44:54;;;;;;;2.22;2.13;;;;;;;;;;5013498;28;20213;-83
2023/05/14 10:47:22;;;;;;;2.17;2.08;;;;;;;;;;5003242;28;20257;-84
2023/05/14 10:49:52;;;;;;;2.17;2.08;;;;;;;;;;4994446;28;20203;-83
2023/05/14 10:52:20;;;;;;;2.58;2.30;;;;;;;;;;4995388;28;20210;-85
2023/05/14 10:54:51;;;;;;;2.80;2.60;;;;;;;;;;4995237;28;20290;-84
2023/05/14 10:57:22;;;;;;;1.80;1.70;;;;;;;;;;4996080;28;20212;-84
2023/05/14 10:59:52;;;;;;;2.13;1.77;;;;;;;;;;4995565;28;20226;-84
2023/05/14 11:02:22;;;;;;;2.53;2.33;;;;;;;;;;4994983;28;20326;-84
2023/05/14 11:04:58;;;;;;;2.70;2.50;;;;;;;;;;4994747;28;20664;-83
2023/05/14 11:07:29;;;;;;;2.03;1.90;;;;;;;;;;4995882;28;20210;-85
2023/05/14 11:10:03;;;;;;;2.13;2.03;;;;;;;;;;4994302;28;20210;-84
2023/05/14 11:12:32;;;;;;;2.20;2.10;;;;;;;;;;5002027;28;20261;-82
2023/05/14 11:15:01;;;;;;;1.60;1.50;;;;;;;;;;5014667;28;20570;-84
2023/05/14 11:17:30;;;;;;;3.20;2.22;;;;;;;;;;5005459;28;20214;-81
2023/05/14 11:19:58;;;;;;;3.05;2.70;;;;;;;;;;4998195;28;20203;-84
2023/05/14 11:22:26;;;;;;;2.25;2.10;;;;;;;;;;4997985;28;20229;-84
2023/05/14 11:24:54;;;;;;;2.45;2.25;;;;;;;;;;4997902;28;20582;-83
2023/05/14 11:27:23;;;;;;;2.10;2.00;;;;;;;;;;4997614;28;20684;-82
2023/05/14 11:29:51;;;;;;;2.38;2.17;;;;;;;;;;4997275;28;20218;-81
2023/05/14 11:32:20;;;;;;;4.10;2.40;;;;;;;;;;4997096;28;20200;-82
2023/05/14 11:34:47;;;;;;;3.00;2.70;;;;;;;;;;4998640;28;20204;-84
2023/05/14 11:37:16;;;;;;;2.47;2.28;;;;;;;;;;4998144;28;20216;-83
2023/05/14 11:39:49;;;;;;;2.15;2.05;;;;;;;;;;4998116;28;20295;-81
2023/05/14 11:42:18;;;;;;;2.13;2.03;;;;;;;;;;5003414;28;20234;-84
2023/05/14 11:44:47;;;;;;;1.90;1.80;;;;;;;;;;5018425;28;20195;-84
2023/05/14 11:47:18;;;;;;;1.45;1.35;;;;;;;;;;5021965;22;20254;-78
2023/05/14 11:49:45;;;;;;;1.50;1.40;;;;;;;;;;4996058;28;20207;-76
2023/05/14 11:52:14;;;;;;;2.45;2.33;;;;;;;;;;4996384;28;20560;-77
2023/05/14 11:54:44;;;;;;;2.38;2.28;;;;;;;;;;4996456;28;20212;-77
2023/05/14 11:57:13;;;;;;;2.00;1.90;;;;;;;;;;4996187;28;20314;-78
2023/05/14 11:59:41;;;;;;;1.70;1.60;;;;;;;;;;4996179;28;20229;-78
2023/05/14 12:02:11;;;;;;;1.98;1.80;;;;;;;;;;4997029;28;20238;-77
2023/05/14 12:04:40;;;;;;;2.15;1.75;;;;;;;;;;4997790;28;20204;-78
2023/05/14 12:07:12;;;;;;;2.13;2.03;;;;;;;;;;4996815;28;20658;-78
2023/05/14 12:09:47;;;;;;;1.80;1.70;;;;;;;;;;4996480;28;20206;-77
2023/05/14 12:12:16;;;;;;;2.38;2.28;;;;;;;;;;5001788;28;20667;-78
2023/05/14 12:14:44;;;;;;;2.10;2.00;;;;;;;;;;5016461;28;20209;-79
2023/05/14 12:17:16;;;;;;;2.13;2.03;;;;;;;;;;5007601;28;20291;-78
2023/05/14 12:19:46;;;;;;;2.00;1.90;;;;;;;;;;4997049;28;20200;-78
2023/05/14 12:22:16;;;;;;;2.03;1.92;;;;;;;;;;4996638;28;20234;-79
2023/05/14 12:24:44;;;;;;;2.00;1.90;;;;;;;;;;4996409;28;20203;-78
2023/05/14 12:27:11;;;;;;;2.38;2.28;;;;;;;;;;4995375;28;20228;-79
2023/05/14 12:29:39;;;;;;;2.10;2.00;;;;;;;;;;4995925;28;20200;-79
2023/05/14 12:32:10;;;;;;;1.95;1.85;;;;;;;;;;4996144;28;20294;-78
2023/05/14 12:34:38;;;;;;;1.58;1.48;;;;;;;;;;4997782;28;20238;-79
2023/05/14 12:37:07;;;;;;;1.63;1.52;;;;;;;;;;4995508;28;20228;-78
2023/05/14 12:39:35;;;;;;;1.92;1.83;;;;;;;;;;4995697;28;20582;-78
2023/05/14 12:42:03;;;;;;;2.03;1.92;;;;;;;;;;4998829;28;20317;-78
2023/05/14 12:44:30;;;;;;;1.80;1.70;;;;;;;;;;5016848;28;20491;-78
2023/05/14 12:46:58;;;;;;;1.67;1.58;;;;;;;;;;5007165;28;20239;-78
2023/05/14 12:49:25;;;;;;;1.80;1.70;;;;;;;;;;4995114;28;20572;-77
2023/05/14 12:51:53;;;;;;;1.95;1.85;;;;;;;;;;4995106;28;20702;-77
2023/05/14 12:54:21;;;;;;;1.83;1.60;;;;;;;;;;4992777;28;20288;-78
2023/05/14 12:56:49;;;;;;;2.15;1.92;;;;;;;;;;4993275;28;20232;-78
2023/05/14 12:59:16;;;;;;;3.05;2.85;;;;;;;;;;4985098;28;20630;-77
2023/05/14 13:01:44;;;;;;;1.60;1.50;;;;;;;;;;4988199;28;20218;-78
2023/05/14 13:04:12;;;;;;;1.80;1.60;;;;;;;;;;4987878;28;20228;-78
2023/05/14 13:06:40;;;;;;;1.52;1.42;;;;;;;;;;4983622;28;20611;-78
2023/05/14 13:09:08;;;;;;;1.73;1.63;;;;;;;;;;4990540;28;20199;-78
2023/05/14 13:11:37;;;;;;;1.95;1.85;;;;;;;;;;4996980;28;20203;-78
2023/05/14 13:14:04;;;;;;;4.45;1.98;;;;;;;;;;4985540;28;20250;-78
2023/05/14 13:16:32;;;;;;;1.70;1.60;;;;;;;;;;4994454;28;20228;-78
2023/05/14 13:18:59;;;;;;;1.40;1.30;;;;;;;;;;4995059;28;20208;-77
2023/05/14 13:21:27;;;;;;;1.83;1.60;;;;;;;;;;4996497;28;20706;-78
2023/05/14 13:23:54;;;;;;;1.77;1.60;;;;;;;;;;4995494;28;20223;-77
2023/05/14 13:26:25;;;;;;;1.50;1.40;;;;;;;;;;4994441;28;20250;-77
2023/05/14 13:28:54;;;;;;;3.85;1.83;;;;;;;;;;4994540;28;20199;-77
2023/05/14 13:31:21;;;;;;;1.75;1.65;;;;;;;;;;4994173;28;20668;-77
2023/05/14 13:33:48;;;;;;;2.17;2.03;;;;;;;;;;4994282;28;20200;-77
2023/05/14 13:36:16;;;;;;;2.00;1.75;;;;;;;;;;4995827;28;20314;-78
2023/05/14 13:38:44;;;;;;;1.77;1.67;;;;;;;;;;4994329;28;20303;-78
2023/05/14 13:41:12;;;;;;;1.65;1.55;;;;;;;;;;4995389;28;20203;-78
2023/05/14 13:43:39;;;;;;;2.47;2.10;;;;;;;;;;5012707;28;20237;-78
2023/05/14 13:46:08;;;;;;;1.90;1.80;;;;;;;;;;5014851;28;20262;-78
2023/05/14 13:48:36;;;;;;;1.92;1.75;;;;;;;;;;4994198;28;20634;-78
2023/05/14 13:51:03;;;;;;;1.80;1.70;;;;;;;;;;4994742;28;20215;-77
2023/05/14 13:53:31;;;;;;;1.88;1.77;;;;;;;;;;4994814;28;20250;-78
2023/05/14 13:56:00;;;;;;;2.33;2.00;;;;;;;;;;4995552;28;20731;-78
2023/05/14 13:58:28;;;;;;;2.63;2.10;;;;;;;;;;4993893;28;20211;-78
2023/05/14 14:00:55;;;;;;;3.92;3.60;;;;;;;;;;4993983;28;20303;-78
2023/05/14 14:03:24;;;;;;;3.30;3.00;;;;;;;;;;4995013;28;20293;-78
2023/05/14 14:05:52;;;;;;;3.15;2.70;;;;;;;;;;4995458;28;20224;-79
2023/05/14 14:08:19;;;;;;;4.75;3.10;;;;;;;;;;4995200;28;20283;-78
2023/05/14 14:10:47;;;;;;;2.08;1.90;;;;;;;;;;4995328;28;20627;-79
2023/05/14 14:13:14;;;;;;;1.95;1.83;;;;;;;;;;5008383;28;20282;-79
2023/05/14 14:15:42;;;;;;;1.60;1.50;;;;;;;;;;5013833;28;20314;-79
2023/05/14 14:18:09;;;;;;;1.50;1.33;;;;;;;;;;4997237;28;20216;-78
2023/05/14 14:20:39;;;;;;;1.65;1.40;;;;;;;;;;4994291;28;20698;-77
2023/05/14 14:23:06;;;;;;;1.35;1.30;;;;;;;;;;4994156;28;20227;-78
2023/05/14 14:25:34;;;;;;;0.90;0.90;;;;;;;;;;4993827;28;20237;-78
2023/05/14 14:28:01;;;;;;;1.77;1.67;;;;;;;;;;4994329;28;20207;-78
2023/05/14 14:30:29;;;;;;;1.85;1.75;;;;;;;;;;4994079;28;20203;-78
2023/05/14 14:32:56;;;;;;;1.60;1.45;;;;;;;;;;4994042;28;20208;-78
2023/05/14 14:35:24;;;;;;;1.92;1.45;;;;;;;;;;4993726;28;20654;-78
2023/05/14 14:37:54;;;;;;;2.80;2.30;;;;;;;;;;4992951;28;20210;-77
2023/05/14 14:40:22;;;;;;;2.20;1.92;;;;;;;;;;4993658;28;20294;-78
2023/05/14 14:42:50;;;;;;;6.10;2.97;;;;;;;;;;5002653;28;20362;-79
2023/05/14 14:45:17;;;;;;;2.25;2.05;;;;;;;;;;5012568;28;20288;-78
2023/05/14 14:47:47;;;;;;;2.20;2.00;;;;;;;;;;4998407;28;20590;-78
2023/05/14 14:50:14;;;;;;;1.90;1.50;;;;;;;;;;4993026;28;20229;-78
2023/05/14 14:52:44;;;;;;;1.85;1.75;;;;;;;;;;4992913;28;20206;-78